Terminal Aerodrome Forecast
Issued by NWS

Home | Current Version | Previous Version | Text Only | Print | Product List | Glossary On
Versions: 1 2 3 4 5 6 7 8 9 10 11 12 13 14 15 16 17 18 19 20 21 22 23
000
FTUS46 KPDT 102342
TAFDLS
TAF
KDLS 102342Z 1100/1124 30003KT P6SM SCT090 SCT150
     FM110300 VRB03KT P6SM BKN130 BKN150
     FM111500 31004KT 1SM -FZRASN BR BKN015 OVC020
     FM111800 12004KT 6SM BR SCT020 BKN040=

USA.gov is the U.S. government's official web portal to all federal, state and local government web resources and services.